createdAt,value
2018-12-29T00:02:12.028Z,99346.31
2018-12-29T00:04:44.394Z,99341.45
2018-12-29T00:07:16.723Z,99317.98
2018-12-29T00:09:49.085Z,99300.24
2018-12-29T00:12:21.409Z,99304.36
2018-12-29T00:14:55.137Z,99307.02
2018-12-29T00:17:27.598Z,99310.12
2018-12-29T00:19:59.976Z,99315.18
2018-12-29T00:22:32.296Z,99325.71
2018-12-29T00:25:04.761Z,99322.99
2018-12-29T00:27:37.098Z,99339.61
2018-12-29T00:30:09.668Z,99341.69
2018-12-29T00:32:42.097Z,99338.23
2018-12-29T00:35:14.575Z,99344.81
2018-12-29T00:37:47.006Z,99360.64
2018-12-29T00:40:19.372Z,99362.30
2018-12-29T00:42:51.803Z,99358.56
2018-12-29T00:45:24.278Z,99337.63
2018-12-29T00:47:56.746Z,99354.20
2018-12-29T00:50:29.115Z,99351.81
2018-12-29T00:53:01.447Z,99367.94
2018-12-29T00:55:33.816Z,99347.57
2018-12-29T00:58:06.002Z,99359.19
2018-12-29T01:00:38.350Z,99385.05
2018-12-29T01:03:10.545Z,99396.67
2018-12-29T01:05:42.766Z,99390.98
2018-12-29T01:08:15.172Z,99376.98
2018-12-29T01:10:47.537Z,99395.88
2018-12-29T01:13:19.863Z,99403.34
2018-12-29T01:15:52.236Z,99403.20
2018-12-29T01:18:24.565Z,99415.46
2018-12-29T01:20:56.937Z,99413.07
2018-12-29T01:23:29.255Z,99421.28
2018-12-29T01:26:01.723Z,99414.63
2018-12-29T01:28:34.050Z,99422.97
2018-12-29T01:31:06.513Z,99421.98
2018-12-29T01:33:38.842Z,99426.43
2018-12-29T01:36:11.307Z,99425.47
2018-12-29T01:38:43.631Z,99426.70
2018-12-29T01:41:16.000Z,99423.05
2018-12-29T01:43:48.322Z,99432.81
2018-12-29T01:46:20.679Z,99430.83
2018-12-29T01:48:53.051Z,99428.61
2018-12-29T01:51:25.624Z,99430.80
2018-12-29T01:53:58.188Z,99434.75
2018-12-29T01:56:30.562Z,99439.19
2018-12-29T01:59:02.882Z,99439.11
2018-12-29T02:01:35.344Z,99445.60
2018-12-29T02:04:07.659Z,99444.83
2018-12-29T02:06:40.026Z,99439.38
2018-12-29T02:09:12.367Z,99434.78
2018-12-29T02:11:44.832Z,99436.32
2018-12-29T02:14:17.029Z,99437.22
2018-12-29T02:16:49.360Z,99440.27
2018-12-29T02:19:21.881Z,99443.70
2018-12-29T02:21:54.251Z,99442.91
2018-12-29T02:24:26.575Z,99425.36
2018-12-29T02:26:58.932Z,99408.03
2018-12-29T02:29:31.253Z,99406.69
2018-12-29T02:32:03.611Z,99407.27
2018-12-29T02:34:36.034Z,99399.77
2018-12-29T02:37:08.399Z,99396.81
2018-12-29T02:39:40.729Z,99394.34
2018-12-29T02:42:13.098Z,99390.61
2018-12-29T02:44:45.409Z,99383.27
2018-12-29T02:47:17.928Z,99384.63
2018-12-29T02:49:50.338Z,99383.34
2018-12-29T02:52:22.764Z,99384.76
2018-12-29T02:54:55.076Z,99373.89
2018-12-29T02:57:27.447Z,99373.31
2018-12-29T02:59:59.782Z,99381.09
2018-12-29T03:02:32.154Z,99371.45
2018-12-29T03:05:04.582Z,99364.78
2018-12-29T03:07:37.036Z,99358.57
2018-12-29T03:10:09.565Z,99342.28
2018-12-29T03:12:41.936Z,99342.66
2018-12-29T03:15:14.719Z,99350.88
2018-12-29T03:17:47.289Z,99351.05
2018-12-29T03:20:19.607Z,99340.40
2018-12-29T03:22:51.978Z,99344.17
2018-12-29T03:25:24.303Z,99354.99
2018-12-29T03:27:56.661Z,99354.89
2018-12-29T03:30:28.996Z,99355.38
2018-12-29T03:33:01.482Z,99349.80
2018-12-29T03:35:33.928Z,99345.69
2018-12-29T03:38:06.733Z,99343.72
2018-12-29T03:40:39.154Z,99343.45
2018-12-29T03:43:11.527Z,99337.14
2018-12-29T03:45:48.983Z,99332.38
2018-12-29T03:48:17.940Z,99340.66
2018-12-29T03:50:50.254Z,99334.49
2018-12-29T03:53:22.927Z,99341.42
2018-12-29T03:55:55.256Z,99331.28
2018-12-29T03:58:27.591Z,99329.58
2018-12-29T04:00:59.939Z,99328.32
2018-12-29T04:03:32.290Z,99336.71
2018-12-29T04:06:04.658Z,99334.94
2018-12-29T04:08:37.032Z,99346.51
2018-12-29T04:11:09.447Z,99356.56
2018-12-29T04:13:42.582Z,99347.38
2018-12-29T04:16:14.998Z,99348.23
2018-12-29T04:18:47.374Z,99344.22
2018-12-29T04:21:19.733Z,99349.19
2018-12-29T04:23:52.108Z,99350.45
2018-12-29T04:26:24.474Z,99352.21
2018-12-29T04:28:56.845Z,99351.06
2018-12-29T04:31:29.202Z,99366.48
2018-12-29T04:34:01.577Z,99370.44
2018-12-29T04:36:33.945Z,99381.77
2018-12-29T04:39:07.470Z,99377.43
2018-12-29T04:41:39.839Z,99369.55
2018-12-29T04:44:12.215Z,99361.63
2018-12-29T04:46:44.589Z,99367.28
2018-12-29T04:49:17.015Z,99365.80
2018-12-29T04:51:49.382Z,99364.31
2018-12-29T04:54:21.767Z,99365.19
2018-12-29T04:56:54.132Z,99361.95
2018-12-29T04:59:26.513Z,99371.14
2018-12-29T05:01:58.881Z,99364.19
2018-12-29T05:04:31.255Z,99363.31
2018-12-29T05:07:03.632Z,99367.50
2018-12-29T05:09:36.016Z,99363.44
2018-12-29T05:12:08.377Z,99357.09
2018-12-29T05:14:40.753Z,99355.66
2018-12-29T05:17:13.122Z,99359.77
2018-12-29T05:19:45.501Z,99365.32
2018-12-29T05:22:17.873Z,99370.68
2018-12-29T05:24:50.351Z,99363.59
2018-12-29T05:27:22.822Z,99370.48
2018-12-29T05:29:55.203Z,99383.06
2018-12-29T05:32:27.576Z,99385.50
2018-12-29T05:34:59.946Z,99383.16
2018-12-29T05:37:32.411Z,99388.38
2018-12-29T05:40:04.991Z,99389.76
2018-12-29T05:42:37.352Z,99391.66
2018-12-29T05:45:09.936Z,99394.59
2018-12-29T05:47:42.311Z,99396.12
2018-12-29T05:50:14.835Z,99393.98
2018-12-29T05:52:47.204Z,99392.75
2018-12-29T05:55:19.679Z,99398.89
2018-12-29T05:57:52.042Z,99399.13
2018-12-29T06:00:24.437Z,99404.63
2018-12-29T06:02:56.799Z,99407.41
2018-12-29T06:05:29.173Z,99403.68
2018-12-29T06:08:01.539Z,99414.27
2018-12-29T06:10:33.910Z,99412.48
2018-12-29T06:13:06.283Z,99410.81
2018-12-29T06:15:38.655Z,99411.48
2018-12-29T06:18:11.029Z,99408.14
2018-12-29T06:20:43.401Z,99411.06
2018-12-29T06:23:15.758Z,99412.10
2018-12-29T06:25:48.723Z,99411.38
2018-12-29T06:28:21.096Z,99408.27
2018-12-29T06:30:53.480Z,99416.77
2018-12-29T06:33:25.844Z,99421.14
2018-12-29T06:35:58.216Z,99419.74
2018-12-29T06:38:30.579Z,99422.01
2018-12-29T06:41:03.063Z,99422.89
2018-12-29T06:43:35.428Z,99424.27
2018-12-29T06:46:07.810Z,99418.41
2018-12-29T06:48:40.288Z,99424.17
2018-12-29T06:51:12.800Z,99416.09
2018-12-29T06:53:45.173Z,99405.07
2018-12-29T06:56:17.541Z,99397.69
2018-12-29T06:58:49.907Z,99397.75
2018-12-29T07:01:22.276Z,99405.75
2018-12-29T07:03:54.628Z,99407.56
2018-12-29T07:06:27.000Z,99405.85
2018-12-29T07:08:59.361Z,99411.47
2018-12-29T07:11:31.829Z,99428.21
2018-12-29T07:14:04.211Z,99427.25
2018-12-29T07:16:42.177Z,99434.08
2018-12-29T07:19:11.064Z,99434.02
2018-12-29T07:21:43.429Z,99442.62
2018-12-29T07:24:15.799Z,99441.30
2018-12-29T07:26:48.180Z,99444.44
2018-12-29T07:29:20.558Z,99444.08
2018-12-29T07:31:52.928Z,99451.97
2018-12-29T07:34:25.259Z,99456.58
2018-12-29T07:36:57.640Z,99455.91
2018-12-29T07:39:30.117Z,99451.72
2018-12-29T07:42:02.489Z,99445.38
2018-12-29T07:44:34.853Z,99449.44
2018-12-29T07:47:07.218Z,99449.26
2018-12-29T07:49:39.746Z,99446.53
2018-12-29T07:52:12.116Z,99452.24
2018-12-29T07:54:44.481Z,99451.55
2018-12-29T07:57:16.850Z,99447.34
2018-12-29T07:59:49.222Z,99439.72
2018-12-29T08:02:21.590Z,99442.19
2018-12-29T08:04:53.955Z,99443.36
2018-12-29T08:07:26.331Z,99437.58
2018-12-29T08:09:58.647Z,99436.60
2018-12-29T08:12:31.010Z,99438.00
2018-12-29T08:15:03.492Z,99442.29
2018-12-29T08:17:35.860Z,99436.00
2018-12-29T08:20:08.488Z,99442.89
2018-12-29T08:22:40.970Z,99441.80
2018-12-29T08:25:13.335Z,99441.67
2018-12-29T08:27:45.708Z,99449.05
2018-12-29T08:30:18.084Z,99452.25
2018-12-29T08:32:50.453Z,99448.35
2018-12-29T08:35:22.821Z,99451.91
2018-12-29T08:37:55.191Z,99450.80
2018-12-29T08:40:27.563Z,99449.59
2018-12-29T08:43:00.324Z,99453.75
2018-12-29T08:45:32.689Z,99457.97
2018-12-29T08:48:05.171Z,99459.73
2018-12-29T08:50:37.585Z,99461.03
2018-12-29T08:53:10.053Z,99464.73
2018-12-29T08:55:42.421Z,99457.17
2018-12-29T08:58:14.789Z,99474.74
2018-12-29T09:00:47.155Z,99476.27
2018-12-29T09:03:19.536Z,99474.87
2018-12-29T09:05:51.920Z,99482.47
2018-12-29T09:08:24.292Z,99485.17
2018-12-29T09:10:56.654Z,99481.86
2018-12-29T09:13:29.031Z,99487.80
2018-12-29T09:16:01.501Z,99476.56
2018-12-29T09:18:33.869Z,99477.55
2018-12-29T09:21:06.241Z,99481.23
2018-12-29T09:23:38.627Z,99489.05
2018-12-29T09:26:10.988Z,99492.41
2018-12-29T09:28:43.460Z,99492.64
2018-12-29T09:31:15.833Z,99488.19
2018-12-29T09:33:48.204Z,99485.72
2018-12-29T09:36:21.381Z,99490.23
2018-12-29T09:38:53.831Z,99488.83
2018-12-29T09:41:26.208Z,99480.16
2018-12-29T09:43:58.583Z,99484.09
2018-12-29T09:46:31.050Z,99482.47
2018-12-29T09:49:03.422Z,99487.84
2018-12-29T09:51:35.939Z,99483.84
2018-12-29T09:54:08.413Z,99479.42
2018-12-29T09:56:40.798Z,99482.98
2018-12-29T09:59:13.170Z,99486.70
2018-12-29T10:01:45.531Z,99487.00
2018-12-29T10:04:17.911Z,99483.45
2018-12-29T10:06:50.281Z,99480.17
2018-12-29T10:09:22.753Z,99483.86
2018-12-29T10:11:55.124Z,99480.82
2018-12-29T10:14:27.483Z,99485.73
2018-12-29T10:21:05.417Z,99474.23
2018-12-29T10:23:37.746Z,99480.05
2018-12-29T10:26:10.119Z,99481.09
2018-12-29T10:28:42.536Z,99484.26
2018-12-29T10:31:14.899Z,99481.16
2018-12-29T10:33:47.210Z,99487.03
2018-12-29T10:36:19.676Z,99480.81
2018-12-29T10:38:52.004Z,99481.27
2018-12-29T10:41:24.371Z,99474.66
2018-12-29T10:43:56.701Z,99478.00
2018-12-29T10:46:29.269Z,99472.78
2018-12-29T10:49:01.702Z,99471.92
2018-12-29T10:51:34.114Z,99464.71
2018-12-29T10:54:06.539Z,99456.06
2018-12-29T10:56:38.917Z,99450.03
2018-12-29T10:59:11.239Z,99451.72
2018-12-29T11:01:43.616Z,99450.45
2018-12-29T11:04:15.987Z,99456.25
2018-12-29T11:06:48.423Z,99448.45
2018-12-29T11:09:20.744Z,99444.16
2018-12-29T11:11:53.106Z,99437.73
2018-12-29T11:14:25.430Z,99429.80
2018-12-29T11:16:58.114Z,99427.11
2018-12-29T11:19:30.443Z,99416.66
2018-12-29T11:22:03.022Z,99417.10
2018-12-29T11:24:35.361Z,99422.44
2018-12-29T11:27:07.718Z,99409.59
2018-12-29T11:29:40.142Z,99406.02
2018-12-29T11:32:12.511Z,99411.50
2018-12-29T11:34:44.840Z,99403.95
2018-12-29T11:37:17.213Z,99397.83
2018-12-29T11:39:49.526Z,99394.15
2018-12-29T11:42:21.895Z,99393.70
2018-12-29T11:44:54.232Z,99397.36
2018-12-29T11:47:26.600Z,99391.78
2018-12-29T11:49:59.110Z,99375.52
2018-12-29T11:52:31.532Z,99379.16
2018-12-29T11:55:03.860Z,99385.83
2018-12-29T11:57:36.229Z,99376.34
2018-12-29T12:00:10.449Z,99374.70
2018-12-29T12:02:42.826Z,99376.56
2018-12-29T12:05:15.155Z,99379.52
2018-12-29T12:07:47.528Z,99381.05
2018-12-29T12:10:19.856Z,99375.59
2018-12-29T12:12:52.230Z,99370.69
2018-12-29T12:15:24.662Z,99378.18
2018-12-29T12:17:57.592Z,99370.92
2018-12-29T12:20:30.267Z,99362.86
2018-12-29T12:23:02.637Z,99359.22
2018-12-29T12:25:34.958Z,99353.66
2018-12-29T12:28:07.626Z,99349.42
2018-12-29T12:30:39.952Z,99351.50
2018-12-29T12:33:12.633Z,99359.27
2018-12-29T12:35:44.956Z,99362.81
2018-12-29T12:38:17.633Z,99364.50
2018-12-29T12:40:49.962Z,99365.66
2018-12-29T12:43:23.899Z,99362.30
2018-12-29T12:45:56.464Z,99361.16
2018-12-29T12:48:28.834Z,99358.75
2018-12-29T12:51:01.514Z,99358.98
2018-12-29T12:53:33.889Z,99355.91
2018-12-29T12:56:06.312Z,99356.42
2018-12-29T12:58:38.677Z,99349.02
2018-12-29T13:01:11.507Z,99347.44
2018-12-29T13:03:43.974Z,99351.30
2018-12-29T13:06:16.297Z,99347.17
2018-12-29T13:08:48.664Z,99341.69
2018-12-29T13:11:20.986Z,99346.36
2018-12-29T13:13:53.357Z,99348.88
2018-12-29T13:16:25.682Z,99345.53
2018-12-29T13:18:58.346Z,99335.62
2018-12-29T13:21:30.672Z,99329.04
2018-12-29T13:24:03.046Z,99327.96
2018-12-29T13:26:35.474Z,99329.53
2018-12-29T13:29:07.844Z,99328.09
2018-12-29T13:31:40.272Z,99328.13
2018-12-29T13:34:12.654Z,99328.55
2018-12-29T13:36:44.976Z,99320.58
2018-12-29T13:39:17.450Z,99322.16
2018-12-29T13:41:49.778Z,99323.52
2018-12-29T13:44:22.148Z,99313.56
2018-12-29T13:46:54.475Z,99311.86
2018-12-29T13:49:26.841Z,99313.89
2018-12-29T13:51:59.414Z,99317.22
2018-12-29T13:54:31.775Z,99317.91
2018-12-29T13:57:04.108Z,99318.76
2018-12-29T13:59:36.489Z,99317.78
2018-12-29T14:02:09.020Z,99312.18
2018-12-29T14:04:41.446Z,99310.11
2018-12-29T14:07:13.819Z,99311.12
2018-12-29T14:09:46.191Z,99300.16
2018-12-29T14:12:18.520Z,99300.05
2018-12-29T14:14:50.980Z,99294.87
2018-12-29T14:17:23.309Z,99293.13
2018-12-29T14:19:55.852Z,99288.97
2018-12-29T14:22:28.177Z,99291.31
2018-12-29T14:25:00.540Z,99302.18
2018-12-29T14:27:32.978Z,99297.45
2018-12-29T14:30:05.548Z,99296.04
2018-12-29T14:32:37.876Z,99299.95
2018-12-29T14:35:10.348Z,99300.05
2018-12-29T14:37:42.882Z,99303.75
2018-12-29T14:40:15.445Z,99310.24
2018-12-29T14:42:47.767Z,99311.91
2018-12-29T14:45:20.240Z,99305.23
2018-12-29T14:47:52.663Z,99306.10
2018-12-29T14:50:25.431Z,99305.68
2018-12-29T14:52:57.794Z,99305.49
2018-12-29T14:55:30.623Z,99307.89
2018-12-29T14:58:02.991Z,99310.51
2018-12-29T15:00:35.600Z,99313.41
2018-12-29T15:03:07.968Z,99317.27
2018-12-29T15:05:40.335Z,99319.86
2018-12-29T15:08:12.755Z,99320.33
2018-12-29T15:10:45.129Z,99312.34
2018-12-29T15:13:17.840Z,99301.98
2018-12-29T15:15:50.205Z,99292.99
2018-12-29T15:18:22.834Z,99283.36
2018-12-29T15:20:55.499Z,99272.97
2018-12-29T15:23:27.828Z,99263.48
2018-12-29T15:26:00.195Z,99252.38
2018-12-29T15:28:32.518Z,99251.66
2018-12-29T15:31:04.992Z,99250.73
2018-12-29T15:33:37.612Z,99258.88
2018-12-29T15:36:16.021Z,99254.03
2018-12-29T15:38:44.304Z,99269.81
2018-12-29T15:41:16.679Z,99276.97
2018-12-29T15:43:48.999Z,99266.52
2018-12-29T15:46:21.463Z,99258.88
2018-12-29T15:48:53.819Z,99239.72
2018-12-29T15:51:26.530Z,99234.75
2018-12-29T15:53:58.852Z,99226.86
2018-12-29T15:56:31.522Z,99234.97
2018-12-29T15:59:03.926Z,99237.32
2018-12-29T16:01:36.440Z,99241.02
2018-12-29T16:04:08.762Z,99249.66
2018-12-29T16:06:41.139Z,99244.33
2018-12-29T16:09:13.464Z,99234.73
2018-12-29T16:11:46.232Z,99226.63
2018-12-29T16:14:18.644Z,99212.14
2018-12-29T16:16:51.319Z,99217.73
2018-12-29T16:19:23.658Z,99225.20
2018-12-29T16:21:56.010Z,99232.25
2018-12-29T16:24:28.523Z,99253.23
2018-12-29T16:27:01.000Z,99252.25
2018-12-29T16:29:33.327Z,99242.60
2018-12-29T16:32:05.845Z,99247.05
2018-12-29T16:34:38.275Z,99253.41
2018-12-29T16:37:10.745Z,99246.95
2018-12-29T16:39:43.269Z,99244.97
2018-12-29T16:42:15.631Z,99260.56
2018-12-29T16:44:47.951Z,99260.08
2018-12-29T16:47:20.317Z,99252.02
2018-12-29T16:49:52.646Z,99245.86
2018-12-29T16:52:25.359Z,99250.18
2018-12-29T16:54:57.680Z,99245.38
2018-12-29T16:57:30.052Z,99246.34
2018-12-29T17:00:02.370Z,99251.99
2018-12-29T17:02:34.739Z,99232.94
2018-12-29T17:05:07.662Z,99233.08
2018-12-29T17:07:40.023Z,99222.30
2018-12-29T17:10:12.340Z,99215.87
2018-12-29T17:12:44.716Z,99218.73
2018-12-29T17:15:17.231Z,99214.06
2018-12-29T17:17:49.602Z,99208.58
2018-12-29T17:20:21.921Z,99202.05
2018-12-29T17:22:54.289Z,99190.66
2018-12-29T17:25:26.613Z,99190.12
2018-12-29T17:27:58.987Z,99190.20
2018-12-29T17:30:31.319Z,99190.53
2018-12-29T17:33:03.682Z,99191.34
2018-12-29T17:35:36.505Z,99188.06
2018-12-29T17:38:08.873Z,99183.83
2018-12-29T17:40:41.193Z,99175.36
2018-12-29T17:43:13.564Z,99174.95
2018-12-29T17:45:45.991Z,99161.98
2018-12-29T17:48:18.360Z,99162.71
2018-12-29T17:50:50.682Z,99146.55
2018-12-29T17:53:23.394Z,99141.34
2018-12-29T17:55:55.707Z,99130.09
2018-12-29T17:58:28.185Z,99119.67
2018-12-29T18:01:00.611Z,99113.97
2018-12-29T18:03:32.975Z,99110.93
2018-12-29T18:06:05.300Z,99113.72
2018-12-29T18:08:37.673Z,99110.86
2018-12-29T18:11:09.994Z,99099.51
2018-12-29T18:13:42.361Z,99092.41
2018-12-29T18:16:15.409Z,99092.55
2018-12-29T18:18:47.836Z,99085.30
2018-12-29T18:21:20.157Z,99081.78
2018-12-29T18:23:52.525Z,99078.55
2018-12-29T18:26:25.249Z,99079.55
2018-12-29T18:28:57.615Z,99070.04
2018-12-29T18:31:29.932Z,99072.92
2018-12-29T18:34:02.303Z,99080.89
2018-12-29T18:36:34.617Z,99101.05
2018-12-29T18:39:09.388Z,99101.87
2018-12-29T18:41:41.714Z,99112.03
2018-12-29T18:44:14.382Z,99114.97
2018-12-29T18:46:46.710Z,99131.79
2018-12-29T18:49:20.053Z,99143.26
2018-12-29T18:51:52.383Z,99151.22
2018-12-29T18:54:24.803Z,99158.19
2018-12-29T18:56:57.229Z,99155.89
2018-12-29T18:59:29.602Z,99154.63
2018-12-29T19:02:02.230Z,99156.59
2018-12-29T19:04:34.590Z,99143.03
2018-12-29T19:07:07.010Z,99155.61
2018-12-29T19:09:39.372Z,99160.16
2018-12-29T19:12:11.796Z,99149.33
2018-12-29T19:14:44.290Z,99157.10
2018-12-29T19:17:16.613Z,99157.00
2018-12-29T19:19:49.284Z,99144.39
2018-12-29T19:22:21.608Z,99141.75
2018-12-29T19:24:53.972Z,99137.57
2018-12-29T19:27:26.297Z,99129.45
2018-12-29T19:29:58.666Z,99117.22
2018-12-29T19:32:31.283Z,99110.23
2018-12-29T19:35:04.056Z,99100.58
2018-12-29T19:37:36.678Z,99088.27
2018-12-29T19:40:09.649Z,99076.44
2018-12-29T19:42:41.974Z,99068.84
2018-12-29T19:45:14.337Z,99057.74
2018-12-29T19:47:46.653Z,99042.16
2018-12-29T19:50:19.305Z,99035.38
2018-12-29T19:52:51.679Z,99005.64
2018-12-29T19:55:24.042Z,99019.18
2018-12-29T19:57:56.371Z,99001.08
2018-12-29T20:00:29.033Z,98994.73
2018-12-29T20:03:01.354Z,98991.06
2018-12-29T20:05:34.117Z,98987.98
2018-12-29T20:08:06.442Z,98973.19
2018-12-29T20:10:38.982Z,98969.95
2018-12-29T20:13:11.629Z,98967.81
2018-12-29T20:15:44.008Z,98967.38
2018-12-29T20:18:16.335Z,98968.66
2018-12-29T20:20:48.699Z,98969.30
2018-12-29T20:23:21.224Z,98963.48
2018-12-29T20:25:53.598Z,98959.33
2018-12-29T20:28:25.970Z,98955.50
2018-12-29T20:30:58.335Z,98952.89
2018-12-29T20:33:30.761Z,98957.83
2018-12-29T20:36:04.209Z,98956.69
2018-12-29T20:38:36.533Z,98949.28
2018-12-29T20:41:08.898Z,98938.88
2018-12-29T20:43:41.319Z,98922.73
2018-12-29T20:46:13.724Z,98929.48
2018-12-29T20:48:46.154Z,98921.64
2018-12-29T20:51:18.562Z,98909.42
2018-12-29T20:53:51.343Z,98907.67
2018-12-29T20:56:23.704Z,98904.73
2018-12-29T20:58:56.024Z,98905.63
2018-12-29T21:01:28.389Z,98903.37
2018-12-29T21:04:00.713Z,98896.03
2018-12-29T21:06:33.197Z,98899.16
2018-12-29T21:09:08.756Z,98893.20
2018-12-29T21:11:41.246Z,98897.03
2018-12-29T21:14:13.566Z,98897.52
2018-12-29T21:16:45.809Z,98898.14
2018-12-29T21:19:18.204Z,98894.38
2018-12-29T21:21:50.577Z,98888.83
2018-12-29T21:24:22.866Z,98881.56
2018-12-29T21:26:55.237Z,98876.52
2018-12-29T21:29:27.436Z,98871.78
2018-12-29T21:31:59.797Z,98871.11
2018-12-29T21:34:32.232Z,98862.45
2018-12-29T21:37:05.107Z,98855.56
2018-12-29T21:39:37.526Z,98859.83
2018-12-29T21:42:09.891Z,98851.98
2018-12-29T21:44:42.259Z,98843.10
2018-12-29T21:47:15.025Z,98845.19
2018-12-29T21:49:48.560Z,98850.02
2018-12-29T21:52:21.182Z,98838.28
2018-12-29T21:54:53.651Z,98834.67
2018-12-29T21:57:25.985Z,98832.60
2018-12-29T21:59:58.155Z,98827.59
2018-12-29T22:02:30.354Z,98830.93
2018-12-29T22:05:02.635Z,98806.02
2018-12-29T22:07:34.845Z,98802.36
2018-12-29T22:10:07.885Z,98801.91
2018-12-29T22:12:40.152Z,98793.92
2018-12-29T22:15:12.406Z,98793.66
2018-12-29T22:17:44.624Z,98791.47
2018-12-29T22:20:16.968Z,98788.09
2018-12-29T22:22:49.180Z,98773.88
2018-12-29T22:25:21.449Z,98768.13
2018-12-29T22:27:53.832Z,98767.88
2018-12-29T22:30:26.467Z,98767.42
2018-12-29T22:32:58.742Z,98763.12
2018-12-29T22:35:30.909Z,98762.77
2018-12-29T22:38:03.121Z,98762.23
2018-12-29T22:40:35.385Z,98753.70
2018-12-29T22:43:07.592Z,98753.03
2018-12-29T22:45:39.758Z,98756.41
2018-12-29T22:48:11.981Z,98750.84
2018-12-29T22:50:44.151Z,98746.44
2018-12-29T22:53:38.722Z,98747.70
2018-12-29T22:56:27.119Z,98730.50
2018-12-29T22:59:20.181Z,98743.70
2018-12-29T23:02:24.354Z,98747.77
2018-12-29T23:05:19.394Z,98739.67
2018-12-29T23:08:06.132Z,98727.16
2018-12-29T23:11:02.180Z,98727.31
2018-12-29T23:13:48.439Z,98733.66
2018-12-29T23:16:37.210Z,98729.33
2018-12-29T23:19:49.227Z,98731.64
2018-12-29T23:22:38.638Z,98718.02
2018-12-29T23:25:18.240Z,98709.36
2018-12-29T23:28:32.721Z,98707.52
2018-12-29T23:31:06.857Z,98703.36
2018-12-29T23:33:39.147Z,98707.11
2018-12-29T23:36:11.311Z,98693.78
2018-12-29T23:38:43.522Z,98697.08
2018-12-29T23:41:15.882Z,98693.78
2018-12-29T23:43:48.471Z,98707.27
2018-12-29T23:46:20.628Z,98700.89
2018-12-29T23:48:52.915Z,98694.94
2018-12-29T23:51:25.163Z,98689.41
2018-12-29T23:53:57.627Z,98685.42
2018-12-29T23:56:30.118Z,98683.56
2018-12-29T23:59:02.404Z,98685.55
